sensor_id;sensor_type;location;lat;lon;timestamp;P1;P2;P0
46591;PMS6003;32314;48.748;9.656;2023-12-20T00:01:58;10.67;10.67;10.67
46591;PMS6003;32314;48.748;9.656;2023-12-20T00:04:50;9.33;9.33;9.00
46591;PMS6003;32314;48.748;9.656;2023-12-20T00:07:44;13.00;10.67;10.67
46591;PMS6003;32314;48.748;9.656;2023-12-20T00:10:36;10.00;10.00;10.00
46591;PMS6003;32314;48.748;9.656;2023-12-20T00:13:32;15.00;15.00;15.00
46591;PMS6003;32314;48.748;9.656;2023-12-20T00:16:36;12.33;12.33;12.33
46591;PMS6003;32314;48.748;9.656;2023-12-20T00:19:27;6.33;6.33;6.00
46591;PMS6003;32314;48.748;9.656;2023-12-20T00:22:13;2.67;2.67;2.67
46591;PMS6003;32314;48.748;9.656;2023-12-20T00:24:59;3.00;1.00;0.67
46591;PMS6003;32314;48.748;9.656;2023-12-20T00:27:56;2.33;2.33;2.33
46591;PMS6003;32314;48.748;9.656;2023-12-20T00:30:54;1.67;1.67;1.67
46591;PMS6003;32314;48.748;9.656;2023-12-20T00:33:40;2.33;2.33;2.33
46591;PMS6003;32314;48.748;9.656;2023-12-20T00:36:29;2.67;2.67;2.67
46591;PMS6003;32314;48.748;9.656;2023-12-20T00:39:14;0.67;0.67;0.67
46591;PMS6003;32314;48.748;9.656;2023-12-20T00:42:14;0.00;0.00;0.00
46591;PMS6003;32314;48.748;9.656;2023-12-20T00:45:12;3.00;3.00;3.00
46591;PMS6003;32314;48.748;9.656;2023-12-20T00:47:58;3.00;3.00;3.00
46591;PMS6003;32314;48.748;9.656;2023-12-20T00:50:44;3.67;1.67;1.67
46591;PMS6003;32314;48.748;9.656;2023-12-20T00:53:30;3.00;3.00;1.67
46591;PMS6003;32314;48.748;9.656;2023-12-20T00:56:16;1.67;1.67;1.67
46591;PMS6003;32314;48.748;9.656;2023-12-20T00:59:02;1.00;1.00;1.00
46591;PMS6003;32314;48.748;9.656;2023-12-20T01:01:47;2.00;1.67;1.67
46591;PMS6003;32314;48.748;9.656;2023-12-20T01:04:33;2.33;2.33;1.67
46591;PMS6003;32314;48.748;9.656;2023-12-20T01:07:19;1.00;1.00;1.00
46591;PMS6003;32314;48.748;9.656;2023-12-20T01:10:05;2.67;2.67;2.67
46591;PMS6003;32314;48.748;9.656;2023-12-20T01:12:51;2.67;1.67;1.67
46591;PMS6003;32314;48.748;9.656;2023-12-20T01:15:37;2.33;2.33;2.33
46591;PMS6003;32314;48.748;9.656;2023-12-20T01:18:23;4.33;1.67;1.33
46591;PMS6003;32314;48.748;9.656;2023-12-20T01:21:08;3.67;3.67;3.33
46591;PMS6003;32314;48.748;9.656;2023-12-20T01:24:13;1.67;1.67;1.67
46591;PMS6003;32314;48.748;9.656;2023-12-20T01:27:04;4.67;1.67;1.67
46591;PMS6003;32314;48.748;9.656;2023-12-20T01:29:50;2.67;2.67;2.67
46591;PMS6003;32314;48.748;9.656;2023-12-20T01:32:35;1.67;1.67;1.67
46591;PMS6003;32314;48.748;9.656;2023-12-20T01:35:21;8.67;2.67;2.67
46591;PMS6003;32314;48.748;9.656;2023-12-20T01:38:07;1.67;1.67;1.67
46591;PMS6003;32314;48.748;9.656;2023-12-20T01:40:53;5.00;4.00;2.00
46591;PMS6003;32314;48.748;9.656;2023-12-20T01:43:39;4.67;4.67;4.67
46591;PMS6003;32314;48.748;9.656;2023-12-20T01:46:24;6.67;6.67;6.67
46591;PMS6003;32314;48.748;9.656;2023-12-20T01:49:11;4.67;4.67;4.67
46591;PMS6003;32314;48.748;9.656;2023-12-20T01:51:57;4.33;4.33;4.33
46591;PMS6003;32314;48.748;9.656;2023-12-20T01:54:43;5.33;5.33;5.33
46591;PMS6003;32314;48.748;9.656;2023-12-20T01:57:29;5.33;5.33;5.33
46591;PMS6003;32314;48.748;9.656;2023-12-20T02:00:15;6.00;6.00;6.00
46591;PMS6003;32314;48.748;9.656;2023-12-20T02:03:01;9.00;9.00;9.00
46591;PMS6003;32314;48.748;9.656;2023-12-20T02:05:48;9.00;9.00;9.00
46591;PMS6003;32314;48.748;9.656;2023-12-20T02:08:34;13.00;13.00;13.00
46591;PMS6003;32314;48.748;9.656;2023-12-20T02:11:20;14.33;14.33;14.33
46591;PMS6003;32314;48.748;9.656;2023-12-20T02:14:06;13.00;13.00;13.00
46591;PMS6003;32314;48.748;9.656;2023-12-20T02:16:52;11.33;11.33;11.33
46591;PMS6003;32314;48.748;9.656;2023-12-20T02:19:38;10.67;10.67;10.67
46591;PMS6003;32314;48.748;9.656;2023-12-20T02:22:24;12.33;12.33;12.33
46591;PMS6003;32314;48.748;9.656;2023-12-20T02:28:08;9.33;9.33;9.33
46591;PMS6003;32314;48.748;9.656;2023-12-20T02:30:57;9.67;9.67;9.67
46591;PMS6003;32314;48.748;9.656;2023-12-20T02:33:59;8.67;8.67;8.67
46591;PMS6003;32314;48.748;9.656;2023-12-20T02:37:04;4.33;4.33;4.33
46591;PMS6003;32314;48.748;9.656;2023-12-20T02:39:50;6.00;6.00;6.00
46591;PMS6003;32314;48.748;9.656;2023-12-20T02:42:36;5.00;5.00;5.00
46591;PMS6003;32314;48.748;9.656;2023-12-20T02:45:21;5.67;5.67;5.67
46591;PMS6003;32314;48.748;9.656;2023-12-20T02:48:07;6.67;6.67;6.67
46591;PMS6003;32314;48.748;9.656;2023-12-20T02:50:53;6.33;6.33;6.33
46591;PMS6003;32314;48.748;9.656;2023-12-20T02:53:40;3.00;3.00;3.00
46591;PMS6003;32314;48.748;9.656;2023-12-20T02:56:25;2.67;2.67;2.67
46591;PMS6003;32314;48.748;9.656;2023-12-20T02:59:11;4.33;4.33;4.33
46591;PMS6003;32314;48.748;9.656;2023-12-20T03:01:57;2.67;2.67;2.67
46591;PMS6003;32314;48.748;9.656;2023-12-20T03:04:43;2.67;2.67;2.67
46591;PMS6003;32314;48.748;9.656;2023-12-20T03:07:28;3.33;3.33;3.33
46591;PMS6003;32314;48.748;9.656;2023-12-20T03:10:14;5.33;5.33;5.33
46591;PMS6003;32314;48.748;9.656;2023-12-20T03:13:00;3.33;3.33;3.33
46591;PMS6003;32314;48.748;9.656;2023-12-20T03:15:46;2.67;2.67;2.67
46591;PMS6003;32314;48.748;9.656;2023-12-20T03:18:32;3.67;3.67;3.67
46591;PMS6003;32314;48.748;9.656;2023-12-20T03:21:17;4.33;4.33;4.33
46591;PMS6003;32314;48.748;9.656;2023-12-20T03:24:03;8.67;8.67;8.33
46591;PMS6003;32314;48.748;9.656;2023-12-20T03:26:49;6.67;6.67;6.67
46591;PMS6003;32314;48.748;9.656;2023-12-20T03:29:35;5.67;5.67;5.67
46591;PMS6003;32314;48.748;9.656;2023-12-20T03:32:21;4.33;4.33;4.33
46591;PMS6003;32314;48.748;9.656;2023-12-20T03:35:07;3.33;3.33;3.33
46591;PMS6003;32314;48.748;9.656;2023-12-20T03:37:53;2.67;2.67;2.67
46591;PMS6003;32314;48.748;9.656;2023-12-20T03:40:38;4.33;4.33;4.33
46591;PMS6003;32314;48.748;9.656;2023-12-20T03:43:24;4.00;4.00;4.00
46591;PMS6003;32314;48.748;9.656;2023-12-20T03:46:10;3.33;3.33;3.33
46591;PMS6003;32314;48.748;9.656;2023-12-20T03:48:56;3.67;3.00;3.00
46591;PMS6003;32314;48.748;9.656;2023-12-20T03:51:42;1.00;1.00;1.00
46591;PMS6003;32314;48.748;9.656;2023-12-20T03:54:28;3.00;3.00;3.00
46591;PMS6003;32314;48.748;9.656;2023-12-20T03:57:14;1.67;1.67;1.67
46591;PMS6003;32314;48.748;9.656;2023-12-20T04:00:00;1.00;1.00;1.00
46591;PMS6003;32314;48.748;9.656;2023-12-20T04:02:45;1.00;1.00;1.00
46591;PMS6003;32314;48.748;9.656;2023-12-20T04:05:31;1.67;1.67;1.67
46591;PMS6003;32314;48.748;9.656;2023-12-20T04:08:17;0.00;0.00;0.00
46591;PMS6003;32314;48.748;9.656;2023-12-20T04:11:03;0.67;0.67;0.67
46591;PMS6003;32314;48.748;9.656;2023-12-20T04:13:49;0.33;0.33;0.33
46591;PMS6003;32314;48.748;9.656;2023-12-20T04:16:34;3.00;0.67;0.67
46591;PMS6003;32314;48.748;9.656;2023-12-20T04:19:20;0.33;0.33;0.33
46591;PMS6003;32314;48.748;9.656;2023-12-20T04:22:06;2.33;1.00;1.00
46591;PMS6003;32314;48.748;9.656;2023-12-20T04:24:52;0.33;0.33;0.33
46591;PMS6003;32314;48.748;9.656;2023-12-20T04:27:38;4.67;0.33;0.00
46591;PMS6003;32314;48.748;9.656;2023-12-20T04:30:23;0.00;0.00;0.00
46591;PMS6003;32314;48.748;9.656;2023-12-20T04:33:09;0.00;0.00;0.00
46591;PMS6003;32314;48.748;9.656;2023-12-20T04:35:55;0.00;0.00;0.00
46591;PMS6003;32314;48.748;9.656;2023-12-20T04:38:41;0.00;0.00;0.00
46591;PMS6003;32314;48.748;9.656;2023-12-20T04:41:27;0.00;0.00;0.00
46591;PMS6003;32314;48.748;9.656;2023-12-20T04:44:13;0.00;0.00;0.00
46591;PMS6003;32314;48.748;9.656;2023-12-20T04:46:59;0.00;0.00;0.00
46591;PMS6003;32314;48.748;9.656;2023-12-20T04:49:45;0.00;0.00;0.00
46591;PMS6003;32314;48.748;9.656;2023-12-20T04:52:31;0.00;0.00;0.00
46591;PMS6003;32314;48.748;9.656;2023-12-20T04:55:17;0.00;0.00;0.00
46591;PMS6003;32314;48.748;9.656;2023-12-20T04:58:02;1.00;1.00;0.00
46591;PMS6003;32314;48.748;9.656;2023-12-20T05:00:48;0.67;0.67;0.67
46591;PMS6003;32314;48.748;9.656;2023-12-20T05:03:34;0.00;0.00;0.00
46591;PMS6003;32314;48.748;9.656;2023-12-20T05:06:21;0.00;0.00;0.00
46591;PMS6003;32314;48.748;9.656;2023-12-20T05:09:06;1.00;1.00;1.00
46591;PMS6003;32314;48.748;9.656;2023-12-20T05:11:52;1.00;1.00;1.00
46591;PMS6003;32314;48.748;9.656;2023-12-20T05:14:38;2.33;2.33;1.00
46591;PMS6003;32314;48.748;9.656;2023-12-20T05:17:24;0.00;0.00;0.00
46591;PMS6003;32314;48.748;9.656;2023-12-20T05:20:10;0.00;0.00;0.00
46591;PMS6003;32314;48.748;9.656;2023-12-20T05:22:56;0.00;0.00;0.00
46591;PMS6003;32314;48.748;9.656;2023-12-20T05:25:41;0.00;0.00;0.00
46591;PMS6003;32314;48.748;9.656;2023-12-20T05:28:27;0.00;0.00;0.00
46591;PMS6003;32314;48.748;9.656;2023-12-20T05:31:13;0.00;0.00;0.00
46591;PMS6003;32314;48.748;9.656;2023-12-20T05:47:31;0.00;0.00;0.00
46591;PMS6003;32314;48.748;9.656;2023-12-20T05:51:17;0.00;0.00;0.00
46591;PMS6003;32314;48.748;9.656;2023-12-20T05:58:40;0.00;0.00;0.00
46591;PMS6003;32314;48.748;9.656;2023-12-20T06:01:57;0.00;0.00;0.00
46591;PMS6003;32314;48.748;9.656;2023-12-20T06:05:09;0.00;0.00;0.00
46591;PMS6003;32314;48.748;9.656;2023-12-20T06:08:41;0.00;0.00;0.00
46591;PMS6003;32314;48.748;9.656;2023-12-20T06:11:49;1.00;0.00;0.00
46591;PMS6003;32314;48.748;9.656;2023-12-20T06:14:53;0.00;0.00;0.00
46591;PMS6003;32314;48.748;9.656;2023-12-20T06:18:09;0.00;0.00;0.00
46591;PMS6003;32314;48.748;9.656;2023-12-20T06:24:55;0.00;0.00;0.00
46591;PMS6003;32314;48.748;9.656;2023-12-20T06:27:45;24.33;24.00;15.00
46591;PMS6003;32314;48.748;9.656;2023-12-20T06:30:44;3.00;3.00;1.00
46591;PMS6003;32314;48.748;9.656;2023-12-20T06:33:31;0.00;0.00;0.00
46591;PMS6003;32314;48.748;9.656;2023-12-20T06:36:20;9.00;7.67;6.00
46591;PMS6003;32314;48.748;9.656;2023-12-20T06:39:15;8.67;6.00;4.00
46591;PMS6003;32314;48.748;9.656;2023-12-20T06:42:17;7.33;5.33;5.33
46591;PMS6003;32314;48.748;9.656;2023-12-20T06:45:05;0.67;0.67;0.67
46591;PMS6003;32314;48.748;9.656;2023-12-20T06:48:19;0.67;0.67;0.67
46591;PMS6003;32314;48.748;9.656;2023-12-20T06:51:12;1.00;0.00;0.00
46591;PMS6003;32314;48.748;9.656;2023-12-20T06:54:20;0.33;0.33;0.33
46591;PMS6003;32314;48.748;9.656;2023-12-20T06:57:38;0.00;0.00;0.00
46591;PMS6003;32314;48.748;9.656;2023-12-20T07:00:27;1.00;1.00;1.00
46591;PMS6003;32314;48.748;9.656;2023-12-20T07:03:43;0.00;0.00;0.00
46591;PMS6003;32314;48.748;9.656;2023-12-20T07:06:32;0.00;0.00;0.00
46591;PMS6003;32314;48.748;9.656;2023-12-20T07:09:31;0.00;0.00;0.00
46591;PMS6003;32314;48.748;9.656;2023-12-20T07:12:19;0.00;0.00;0.00
46591;PMS6003;32314;48.748;9.656;2023-12-20T07:15:10;3.00;0.00;0.00
46591;PMS6003;32314;48.748;9.656;2023-12-20T07:18:18;0.33;0.33;0.33
46591;PMS6003;32314;48.748;9.656;2023-12-20T07:21:25;6.67;1.00;1.00
46591;PMS6003;32314;48.748;9.656;2023-12-20T07:24:17;0.00;0.00;0.00
46591;PMS6003;32314;48.748;9.656;2023-12-20T07:27:10;0.00;0.00;0.00
46591;PMS6003;32314;48.748;9.656;2023-12-20T07:30:12;0.00;0.00;0.00
46591;PMS6003;32314;48.748;9.656;2023-12-20T07:33:05;2.33;2.33;2.33
46591;PMS6003;32314;48.748;9.656;2023-12-20T07:36:14;1.00;1.00;1.00
46591;PMS6003;32314;48.748;9.656;2023-12-20T07:39:02;0.00;0.00;0.00
46591;PMS6003;32314;48.748;9.656;2023-12-20T07:41:48;0.00;0.00;0.00
46591;PMS6003;32314;48.748;9.656;2023-12-20T07:44:45;0.00;0.00;0.00
46591;PMS6003;32314;48.748;9.656;2023-12-20T07:47:43;0.00;0.00;0.00
46591;PMS6003;32314;48.748;9.656;2023-12-20T07:50:36;0.00;0.00;0.00
46591;PMS6003;32314;48.748;9.656;2023-12-20T07:53:34;0.00;0.00;0.00
46591;PMS6003;32314;48.748;9.656;2023-12-20T07:56:23;0.00;0.00;0.00
46591;PMS6003;32314;48.748;9.656;2023-12-20T07:59:30;3.00;0.00;0.00
46591;PMS6003;32314;48.748;9.656;2023-12-20T08:03:02;0.00;0.00;0.00
46591;PMS6003;32314;48.748;9.656;2023-12-20T08:06:25;0.00;0.00;0.00
46591;PMS6003;32314;48.748;9.656;2023-12-20T08:09:41;9.33;3.67;3.00
46591;PMS6003;32314;48.748;9.656;2023-12-20T08:13:19;1.00;1.00;1.00
46591;PMS6003;32314;48.748;9.656;2023-12-20T08:16:58;3.00;3.00;2.33
46591;PMS6003;32314;48.748;9.656;2023-12-20T08:20:27;0.00;0.00;0.00
46591;PMS6003;32314;48.748;9.656;2023-12-20T08:23:31;0.00;0.00;0.00
46591;PMS6003;32314;48.748;9.656;2023-12-20T08:26:51;1.67;1.67;1.00
46591;PMS6003;32314;48.748;9.656;2023-12-20T08:33:24;0.00;0.00;0.00
46591;PMS6003;32314;48.748;9.656;2023-12-20T08:36:44;4.67;4.67;4.00
46591;PMS6003;32314;48.748;9.656;2023-12-20T08:40:06;0.00;0.00;0.00
46591;PMS6003;32314;48.748;9.656;2023-12-20T08:43:22;6.00;6.00;4.00
46591;PMS6003;32314;48.748;9.656;2023-12-20T08:46:19;0.00;0.00;0.00
46591;PMS6003;32314;48.748;9.656;2023-12-20T08:49:30;4.67;3.33;2.33
46591;PMS6003;32314;48.748;9.656;2023-12-20T09:00:39;4.00;4.00;3.00
46591;PMS6003;32314;48.748;9.656;2023-12-20T09:03:42;7.67;6.33;4.00
46591;PMS6003;32314;48.748;9.656;2023-12-20T09:10:54;3.00;3.00;3.00
46591;PMS6003;32314;48.748;9.656;2023-12-20T09:14:14;1.67;1.67;1.00
46591;PMS6003;32314;48.748;9.656;2023-12-20T09:17:03;4.00;4.00;1.00
46591;PMS6003;32314;48.748;9.656;2023-12-20T09:19:57;0.67;0.67;0.33
46591;PMS6003;32314;48.748;9.656;2023-12-20T09:26:19;1.00;1.00;1.00
46591;PMS6003;32314;48.748;9.656;2023-12-20T09:29:33;1.00;1.00;1.00
46591;PMS6003;32314;48.748;9.656;2023-12-20T09:32:31;1.00;1.00;1.00
46591;PMS6003;32314;48.748;9.656;2023-12-20T09:40:00;1.00;1.00;1.00
46591;PMS6003;32314;48.748;9.656;2023-12-20T09:43:21;0.67;0.67;0.00
46591;PMS6003;32314;48.748;9.656;2023-12-20T09:46:29;1.67;1.00;0.00
46591;PMS6003;32314;48.748;9.656;2023-12-20T09:49:53;0.00;0.00;0.00
46591;PMS6003;32314;48.748;9.656;2023-12-20T09:55:44;1.67;1.67;1.00
46591;PMS6003;32314;48.748;9.656;2023-12-20T10:06:34;0.00;0.00;0.00
46591;PMS6003;32314;48.748;9.656;2023-12-20T10:10:08;0.00;0.00;0.00
46591;PMS6003;32314;48.748;9.656;2023-12-20T10:13:25;0.00;0.00;0.00
46591;PMS6003;32314;48.748;9.656;2023-12-20T10:16:36;4.00;1.00;0.67
46591;PMS6003;32314;48.748;9.656;2023-12-20T10:19:55;0.00;0.00;0.00
46591;PMS6003;32314;48.748;9.656;2023-12-20T10:23:36;0.00;0.00;0.00
46591;PMS6003;32314;48.748;9.656;2023-12-20T10:30:18;1.00;0.00;0.00
46591;PMS6003;32314;48.748;9.656;2023-12-20T10:33:33;3.00;0.00;0.00
46591;PMS6003;32314;48.748;9.656;2023-12-20T10:40:39;0.33;0.33;0.00
46591;PMS6003;32314;48.748;9.656;2023-12-20T10:44:21;0.00;0.00;0.00
46591;PMS6003;32314;48.748;9.656;2023-12-20T10:47:44;0.00;0.00;0.00
46591;PMS6003;32314;48.748;9.656;2023-12-20T10:50:47;3.00;0.00;0.00
46591;PMS6003;32314;48.748;9.656;2023-12-20T10:53:42;0.00;0.00;0.00
46591;PMS6003;32314;48.748;9.656;2023-12-20T11:01:25;0.00;0.00;0.00
46591;PMS6003;32314;48.748;9.656;2023-12-20T11:04:36;0.00;0.00;0.00
46591;PMS6003;32314;48.748;9.656;2023-12-20T11:07:54;0.00;0.00;0.00
46591;PMS6003;32314;48.748;9.656;2023-12-20T11:11:33;1.00;0.00;0.00
46591;PMS6003;32314;48.748;9.656;2023-12-20T11:14:50;0.00;0.00;0.00
46591;PMS6003;32314;48.748;9.656;2023-12-20T11:17:54;0.00;0.00;0.00
46591;PMS6003;32314;48.748;9.656;2023-12-20T11:21:04;0.00;0.00;0.00
46591;PMS6003;32314;48.748;9.656;2023-12-20T11:23:58;0.00;0.00;0.00
46591;PMS6003;32314;48.748;9.656;2023-12-20T11:27:12;0.00;0.00;0.00
46591;PMS6003;32314;48.748;9.656;2023-12-20T11:30:03;0.00;0.00;0.00
46591;PMS6003;32314;48.748;9.656;2023-12-20T11:37:02;1.00;0.00;0.00
46591;PMS6003;32314;48.748;9.656;2023-12-20T11:43:59;0.00;0.00;0.00
46591;PMS6003;32314;48.748;9.656;2023-12-20T11:47:09;0.00;0.00;0.00
46591;PMS6003;32314;48.748;9.656;2023-12-20T11:50:01;1.00;0.00;0.00
46591;PMS6003;32314;48.748;9.656;2023-12-20T11:53:40;0.00;0.00;0.00
46591;PMS6003;32314;48.748;9.656;2023-12-20T11:56:35;0.00;0.00;0.00
46591;PMS6003;32314;48.748;9.656;2023-12-20T12:00:01;0.00;0.00;0.00
46591;PMS6003;32314;48.748;9.656;2023-12-20T12:03:40;0.00;0.00;0.00
46591;PMS6003;32314;48.748;9.656;2023-12-20T12:09:59;0.00;0.00;0.00
46591;PMS6003;32314;48.748;9.656;2023-12-20T12:12:51;0.00;0.00;0.00
46591;PMS6003;32314;48.748;9.656;2023-12-20T12:15:48;0.00;0.00;0.00
46591;PMS6003;32314;48.748;9.656;2023-12-20T12:18:54;0.00;0.00;0.00
46591;PMS6003;32314;48.748;9.656;2023-12-20T12:24:58;0.00;0.00;0.00
46591;PMS6003;32314;48.748;9.656;2023-12-20T12:27:45;0.00;0.00;0.00
46591;PMS6003;32314;48.748;9.656;2023-12-20T12:30:34;0.00;0.00;0.00
46591;PMS6003;32314;48.748;9.656;2023-12-20T12:33:20;0.00;0.00;0.00
46591;PMS6003;32314;48.748;9.656;2023-12-20T12:36:10;2.00;0.00;0.00
46591;PMS6003;32314;48.748;9.656;2023-12-20T12:38:57;0.00;0.00;0.00
46591;PMS6003;32314;48.748;9.656;2023-12-20T12:41:43;0.00;0.00;0.00
46591;PMS6003;32314;48.748;9.656;2023-12-20T12:44:29;0.67;0.67;0.00
46591;PMS6003;32314;48.748;9.656;2023-12-20T12:47:15;0.00;0.00;0.00
46591;PMS6003;32314;48.748;9.656;2023-12-20T12:50:01;0.00;0.00;0.00
46591;PMS6003;32314;48.748;9.656;2023-12-20T12:52:47;0.00;0.00;0.00
46591;PMS6003;32314;48.748;9.656;2023-12-20T12:55:34;0.00;0.00;0.00
46591;PMS6003;32314;48.748;9.656;2023-12-20T12:58:35;0.00;0.00;0.00
46591;PMS6003;32314;48.748;9.656;2023-12-20T13:01:39;3.00;1.00;0.00
46591;PMS6003;32314;48.748;9.656;2023-12-20T13:04:53;0.00;0.00;0.00
46591;PMS6003;32314;48.748;9.656;2023-12-20T13:07:50;0.00;0.00;0.00
46591;PMS6003;32314;48.748;9.656;2023-12-20T13:10:37;0.00;0.00;0.00
46591;PMS6003;32314;48.748;9.656;2023-12-20T13:13:51;0.00;0.00;0.00
46591;PMS6003;32314;48.748;9.656;2023-12-20T13:17:01;0.33;0.33;0.33
46591;PMS6003;32314;48.748;9.656;2023-12-20T13:20:03;4.67;0.33;0.33
46591;PMS6003;32314;48.748;9.656;2023-12-20T13:23:04;0.33;0.33;0.33
46591;PMS6003;32314;48.748;9.656;2023-12-20T13:33:00;2.33;2.33;1.33
46591;PMS6003;32314;48.748;9.656;2023-12-20T13:40:05;2.00;2.00;1.67
46591;PMS6003;32314;48.748;9.656;2023-12-20T13:43:20;1.00;0.00;0.00
46591;PMS6003;32314;48.748;9.656;2023-12-20T13:46:28;0.00;0.00;0.00
46591;PMS6003;32314;48.748;9.656;2023-12-20T13:52:56;0.00;0.00;0.00
46591;PMS6003;32314;48.748;9.656;2023-12-20T13:55:42;0.00;0.00;0.00
46591;PMS6003;32314;48.748;9.656;2023-12-20T13:58:28;0.00;0.00;0.00
46591;PMS6003;32314;48.748;9.656;2023-12-20T14:01:14;0.00;0.00;0.00
46591;PMS6003;32314;48.748;9.656;2023-12-20T14:04:00;0.67;0.67;0.00
46591;PMS6003;32314;48.748;9.656;2023-12-20T14:06:46;3.00;0.00;0.00
46591;PMS6003;32314;48.748;9.656;2023-12-20T14:09:33;3.00;0.00;0.00
46591;PMS6003;32314;48.748;9.656;2023-12-20T14:12:22;3.00;0.00;0.00
46591;PMS6003;32314;48.748;9.656;2023-12-20T14:15:08;0.00;0.00;0.00
46591;PMS6003;32314;48.748;9.656;2023-12-20T14:18:30;0.00;0.00;0.00
46591;PMS6003;32314;48.748;9.656;2023-12-20T14:21:59;0.00;0.00;0.00
46591;PMS6003;32314;48.748;9.656;2023-12-20T14:25:01;0.00;0.00;0.00
46591;PMS6003;32314;48.748;9.656;2023-12-20T14:28:25;0.00;0.00;0.00
46591;PMS6003;32314;48.748;9.656;2023-12-20T14:31:34;0.00;0.00;0.00
46591;PMS6003;32314;48.748;9.656;2023-12-20T14:34:38;0.00;0.00;0.00
46591;PMS6003;32314;48.748;9.656;2023-12-20T14:37:56;0.00;0.00;0.00
46591;PMS6003;32314;48.748;9.656;2023-12-20T14:40:58;0.00;0.00;0.00
46591;PMS6003;32314;48.748;9.656;2023-12-20T14:43:59;0.00;0.00;0.00
46591;PMS6003;32314;48.748;9.656;2023-12-20T14:47:23;10.00;10.00;8.33
46591;PMS6003;32314;48.748;9.656;2023-12-20T14:50:26;0.00;0.00;0.00
46591;PMS6003;32314;48.748;9.656;2023-12-20T14:53:28;0.00;0.00;0.00
46591;PMS6003;32314;48.748;9.656;2023-12-20T14:56:36;3.00;3.00;1.67
46591;PMS6003;32314;48.748;9.656;2023-12-20T14:59:30;3.00;3.00;2.33
46591;PMS6003;32314;48.748;9.656;2023-12-20T15:02:18;0.00;0.00;0.00
46591;PMS6003;32314;48.748;9.656;2023-12-20T15:05:05;0.00;0.00;0.00
46591;PMS6003;32314;48.748;9.656;2023-12-20T15:07:51;1.00;0.00;0.00
46591;PMS6003;32314;48.748;9.656;2023-12-20T15:10:38;0.00;0.00;0.00
46591;PMS6003;32314;48.748;9.656;2023-12-20T15:13:24;0.00;0.00;0.00
46591;PMS6003;32314;48.748;9.656;2023-12-20T15:16:10;1.00;0.00;0.00
46591;PMS6003;32314;48.748;9.656;2023-12-20T15:18:58;1.00;1.00;1.00
46591;PMS6003;32314;48.748;9.656;2023-12-20T15:21:44;0.00;0.00;0.00
46591;PMS6003;32314;48.748;9.656;2023-12-20T15:24:32;0.00;0.00;0.00
46591;PMS6003;32314;48.748;9.656;2023-12-20T15:27:23;8.00;0.00;0.00
46591;PMS6003;32314;48.748;9.656;2023-12-20T15:30:10;1.00;0.00;0.00
46591;PMS6003;32314;48.748;9.656;2023-12-20T15:33:05;1.67;1.67;1.00
46591;PMS6003;32314;48.748;9.656;2023-12-20T15:36:42;22.67;22.00;13.00
46591;PMS6003;32314;48.748;9.656;2023-12-20T15:39:35;12.00;9.33;6.67
46591;PMS6003;32314;48.748;9.656;2023-12-20T15:42:29;3.00;3.00;2.33
46591;PMS6003;32314;48.748;9.656;2023-12-20T15:45:17;1.00;1.00;0.00
46591;PMS6003;32314;48.748;9.656;2023-12-20T15:48:11;1.00;1.00;1.00
46591;PMS6003;32314;48.748;9.656;2023-12-20T15:51:06;0.67;0.67;0.67
46591;PMS6003;32314;48.748;9.656;2023-12-20T15:53:53;3.00;0.67;0.33
46591;PMS6003;32314;48.748;9.656;2023-12-20T15:56:39;1.67;1.67;1.00
46591;PMS6003;32314;48.748;9.656;2023-12-20T15:59:35;1.00;1.00;1.00
46591;PMS6003;32314;48.748;9.656;2023-12-20T16:02:33;0.00;0.00;0.00
46591;PMS6003;32314;48.748;9.656;2023-12-20T16:05:55;1.00;1.00;1.00
46591;PMS6003;32314;48.748;9.656;2023-12-20T16:08:47;6.00;0.00;0.00
46591;PMS6003;32314;48.748;9.656;2023-12-20T16:11:41;1.00;1.00;1.00
46591;PMS6003;32314;48.748;9.656;2023-12-20T16:14:46;6.00;6.00;4.00
46591;PMS6003;32314;48.748;9.656;2023-12-20T16:17:39;3.00;1.00;1.00
46591;PMS6003;32314;48.748;9.656;2023-12-20T16:20:26;1.00;1.00;1.00
46591;PMS6003;32314;48.748;9.656;2023-12-20T16:23:15;0.00;0.00;0.00
46591;PMS6003;32314;48.748;9.656;2023-12-20T16:26:01;0.00;0.00;0.00
46591;PMS6003;32314;48.748;9.656;2023-12-20T16:28:47;6.33;4.00;3.00
46591;PMS6003;32314;48.748;9.656;2023-12-20T16:31:39;1.00;1.00;1.00
46591;PMS6003;32314;48.748;9.656;2023-12-20T16:34:27;2.33;1.00;0.00
46591;PMS6003;32314;48.748;9.656;2023-12-20T16:37:13;3.00;3.00;3.00
46591;PMS6003;32314;48.748;9.656;2023-12-20T16:39:59;3.00;1.67;1.00
46591;PMS6003;32314;48.748;9.656;2023-12-20T16:42:45;1.00;1.00;1.00
46591;PMS6003;32314;48.748;9.656;2023-12-20T16:45:31;3.00;3.00;3.00
46591;PMS6003;32314;48.748;9.656;2023-12-20T16:48:19;3.00;3.00;3.00
46591;PMS6003;32314;48.748;9.656;2023-12-20T16:51:05;0.00;0.00;0.00
46591;PMS6003;32314;48.748;9.656;2023-12-20T16:54:00;4.67;4.67;4.67
46591;PMS6003;32314;48.748;9.656;2023-12-20T16:56:46;3.33;3.33;3.00
46591;PMS6003;32314;48.748;9.656;2023-12-20T16:59:41;3.67;0.00;0.00
46591;PMS6003;32314;48.748;9.656;2023-12-20T17:02:32;0.00;0.00;0.00
46591;PMS6003;32314;48.748;9.656;2023-12-20T17:05:39;1.00;1.00;0.33
46591;PMS6003;32314;48.748;9.656;2023-12-20T17:08:34;4.67;3.00;3.00
46591;PMS6003;32314;48.748;9.656;2023-12-20T17:11:26;3.67;3.67;3.00
46591;PMS6003;32314;48.748;9.656;2023-12-20T17:17:01;0.67;0.67;0.67
46591;PMS6003;32314;48.748;9.656;2023-12-20T17:19:48;3.00;3.00;3.00
46591;PMS6003;32314;48.748;9.656;2023-12-20T17:22:42;0.00;0.00;0.00
46591;PMS6003;32314;48.748;9.656;2023-12-20T17:25:27;0.33;0.33;0.33
46591;PMS6003;32314;48.748;9.656;2023-12-20T17:28:16;0.00;0.00;0.00
46591;PMS6003;32314;48.748;9.656;2023-12-20T17:31:07;1.33;0.00;0.00
46591;PMS6003;32314;48.748;9.656;2023-12-20T17:33:53;0.00;0.00;0.00
46591;PMS6003;32314;48.748;9.656;2023-12-20T17:36:40;1.00;1.00;0.00
46591;PMS6003;32314;48.748;9.656;2023-12-20T17:39:57;0.00;0.00;0.00
46591;PMS6003;32314;48.748;9.656;2023-12-20T17:43:11;0.00;0.00;0.00
46591;PMS6003;32314;48.748;9.656;2023-12-20T17:46:00;0.00;0.00;0.00
46591;PMS6003;32314;48.748;9.656;2023-12-20T17:48:57;0.33;0.33;0.00
46591;PMS6003;32314;48.748;9.656;2023-12-20T17:51:56;0.00;0.00;0.00
46591;PMS6003;32314;48.748;9.656;2023-12-20T17:54:44;2.33;2.33;1.67
46591;PMS6003;32314;48.748;9.656;2023-12-20T17:57:47;3.00;3.00;3.00
46591;PMS6003;32314;48.748;9.656;2023-12-20T18:00:39;0.33;0.33;0.00
46591;PMS6003;32314;48.748;9.656;2023-12-20T18:03:31;0.00;0.00;0.00
46591;PMS6003;32314;48.748;9.656;2023-12-20T18:06:25;3.00;1.00;0.00
46591;PMS6003;32314;48.748;9.656;2023-12-20T18:09:20;0.00;0.00;0.00
46591;PMS6003;32314;48.748;9.656;2023-12-20T18:12:08;1.00;1.00;1.00
46591;PMS6003;32314;48.748;9.656;2023-12-20T18:15:02;0.00;0.00;0.00
46591;PMS6003;32314;48.748;9.656;2023-12-20T18:17:53;1.67;0.33;0.00
46591;PMS6003;32314;48.748;9.656;2023-12-20T18:26:03;0.00;0.00;0.00
46591;PMS6003;32314;48.748;9.656;2023-12-20T18:29:02;1.00;1.00;1.00
46591;PMS6003;32314;48.748;9.656;2023-12-20T18:31:57;1.00;1.00;1.00
46591;PMS6003;32314;48.748;9.656;2023-12-20T18:34:46;1.33;0.33;0.00
46591;PMS6003;32314;48.748;9.656;2023-12-20T18:37:32;0.00;0.00;0.00
46591;PMS6003;32314;48.748;9.656;2023-12-20T18:40:23;0.00;0.00;0.00
46591;PMS6003;32314;48.748;9.656;2023-12-20T18:43:13;0.00;0.00;0.00
46591;PMS6003;32314;48.748;9.656;2023-12-20T18:45:59;0.00;0.00;0.00
46591;PMS6003;32314;48.748;9.656;2023-12-20T18:48:48;0.00;0.00;0.00
46591;PMS6003;32314;48.748;9.656;2023-12-20T18:51:33;0.00;0.00;0.00
46591;PMS6003;32314;48.748;9.656;2023-12-20T18:54:19;0.00;0.00;0.00
46591;PMS6003;32314;48.748;9.656;2023-12-20T18:57:06;7.33;4.00;3.00